createdAt,value
2018-06-27T00:00:25.050Z,93.26
2018-06-27T00:01:25.259Z,93.16
2018-06-27T00:02:25.451Z,93.64
2018-06-27T00:03:25.680Z,94.21
2018-06-27T00:04:25.888Z,93.55
2018-06-27T00:05:26.086Z,94.12
2018-06-27T00:06:26.266Z,94.89
2018-06-27T00:07:26.482Z,94.55
2018-06-27T00:08:26.665Z,95.22
2018-06-27T00:09:26.861Z,95.79
2018-06-27T00:10:27.058Z,95.32
2018-06-27T00:11:27.268Z,95.89
2018-06-27T00:12:27.465Z,96.08
2018-06-27T00:13:27.660Z,95.70
2018-06-27T00:14:27.864Z,96.08
2018-06-27T00:15:28.083Z,96.08
2018-06-27T00:16:28.294Z,95.79
2018-06-27T00:17:28.491Z,95.70
2018-06-27T00:18:28.677Z,95.61
2018-06-27T00:19:28.972Z,95.79
2018-06-27T00:20:29.074Z,95.70
2018-06-27T00:21:29.292Z,95.89
2018-06-27T00:22:29.518Z,96.08
2018-06-27T00:23:29.711Z,95.98
2018-06-27T00:24:29.907Z,95.70
2018-06-27T00:25:30.107Z,95.98
2018-06-27T00:26:30.291Z,96.27
2018-06-27T00:27:30.499Z,95.79
2018-06-27T00:28:30.704Z,95.89
2018-06-27T00:29:31.060Z,96.56
2018-06-27T00:30:31.137Z,95.89
2018-06-27T00:31:31.352Z,96.47
2018-06-27T00:32:31.572Z,96.56
2018-06-27T00:33:31.779Z,96.84
2018-06-27T00:34:31.963Z,97.04
2018-06-27T00:35:32.152Z,97.08
2018-06-27T00:36:32.331Z,96.56
2018-06-27T00:37:32.541Z,96.84
2018-06-27T00:38:32.725Z,96.42
2018-06-27T00:39:32.915Z,96.70
2018-06-27T00:40:33.125Z,96.47
2018-06-27T00:41:33.335Z,96.75
2018-06-27T00:42:33.525Z,96.61
2018-06-27T00:43:33.727Z,96.51
2018-06-27T00:44:33.912Z,96.66
2018-06-27T00:45:34.094Z,96.70
2018-06-27T00:46:34.287Z,96.42
2018-06-27T00:47:34.495Z,96.22
2018-06-27T00:48:34.694Z,96.51
2018-06-27T00:49:34.905Z,97.18
2018-06-27T00:50:35.122Z,96.99
2018-06-27T00:51:35.325Z,96.80
2018-06-27T00:52:35.535Z,96.32
2018-06-27T00:53:35.735Z,96.70
2018-06-27T00:54:35.932Z,96.89
2018-06-27T00:57:07.742Z,96.89
2018-06-27T00:58:07.918Z,97.37
2018-06-27T00:59:08.115Z,97.56
2018-06-27T01:00:08.297Z,97.56
2018-06-27T01:01:08.498Z,97.75
2018-06-27T01:02:08.703Z,97.66
2018-06-27T01:03:08.903Z,97.56
2018-06-27T01:04:09.108Z,97.94
2018-06-27T01:05:09.297Z,97.94
2018-06-27T01:06:09.487Z,97.94
2018-06-27T01:07:09.681Z,97.94
2018-06-27T01:08:09.893Z,97.66
2018-06-27T01:09:10.085Z,96.70
2018-06-27T01:10:10.270Z,96.80
2018-06-27T01:11:10.463Z,96.56
2018-06-27T01:12:10.671Z,96.99
2018-06-27T01:13:10.854Z,96.70
2018-06-27T01:14:11.072Z,96.80
2018-06-27T01:15:11.287Z,96.75
2018-06-27T01:16:11.472Z,96.42
2018-06-27T01:17:11.664Z,96.70
2018-06-27T01:18:11.874Z,96.80
2018-06-27T01:19:12.082Z,96.80
2018-06-27T01:20:12.293Z,96.42
2018-06-27T01:21:12.464Z,96.66
2018-06-27T01:22:12.667Z,96.32
2018-06-27T01:23:12.854Z,97.42
2018-06-27T01:24:13.042Z,97.03
2018-06-27T01:25:13.235Z,96.42
2018-06-27T01:26:13.425Z,96.46
2018-06-27T01:27:13.622Z,96.46
2018-06-27T01:28:13.804Z,96.56
2018-06-27T01:29:14.015Z,96.75
2018-06-27T01:30:14.220Z,96.66
2018-06-27T01:31:14.410Z,96.66
2018-06-27T01:32:14.619Z,96.66
2018-06-27T01:33:14.824Z,96.37
2018-06-27T01:35:46.626Z,96.75
2018-06-27T01:36:46.853Z,96.75
2018-06-27T01:39:18.916Z,97.52
2018-06-27T01:40:19.090Z,97.42
2018-06-27T01:41:19.276Z,97.52
2018-06-27T01:42:19.484Z,97.32
2018-06-27T01:43:19.678Z,97.13
2018-06-27T01:44:19.858Z,97.61
2018-06-27T01:45:20.047Z,97.52
2018-06-27T01:46:20.250Z,97.61
2018-06-27T01:47:20.438Z,97.23
2018-06-27T01:48:20.617Z,97.18
2018-06-27T01:49:20.803Z,97.27
2018-06-27T01:50:21.012Z,97.18
2018-06-27T01:51:21.202Z,97.71
2018-06-27T01:52:21.380Z,97.47
2018-06-27T01:53:21.588Z,97.08
2018-06-27T01:54:21.780Z,97.66
2018-06-27T01:55:21.970Z,97.56
2018-06-27T01:56:22.166Z,97.94
2018-06-27T01:57:22.360Z,97.75
2018-06-27T01:58:22.549Z,97.85
2018-06-27T01:59:22.741Z,98.03
2018-06-27T02:00:22.957Z,97.56
2018-06-27T02:01:23.142Z,98.32
2018-06-27T02:02:23.338Z,98.42
2018-06-27T02:03:23.528Z,99.28
2018-06-27T02:04:23.736Z,99.18
2018-06-27T02:05:23.944Z,98.42
2018-06-27T02:06:24.129Z,98.13
2018-06-27T02:07:24.314Z,97.85
2018-06-27T02:08:24.517Z,97.71
2018-06-27T02:09:24.721Z,97.94
2018-06-27T02:10:24.907Z,97.37
2018-06-27T02:11:25.104Z,97.75
2018-06-27T02:12:25.313Z,98.03
2018-06-27T02:13:25.506Z,97.94
2018-06-27T02:14:25.689Z,97.85
2018-06-27T02:15:25.893Z,97.56
2018-06-27T02:16:26.103Z,97.66
2018-06-27T02:17:26.292Z,98.23
2018-06-27T02:18:26.505Z,97.18
2018-06-27T02:20:58.706Z,97.27
2018-06-27T02:21:58.879Z,98.13
2018-06-27T02:22:59.069Z,97.27
2018-06-27T02:23:59.299Z,97.85
2018-06-27T02:24:59.489Z,97.85
2018-06-27T02:25:59.706Z,97.85
2018-06-27T02:26:59.898Z,97.85
2018-06-27T02:28:00.088Z,97.85
2018-06-27T02:29:00.273Z,98.23
2018-06-27T02:30:00.483Z,98.32
2018-06-27T02:31:00.680Z,97.94
2018-06-27T02:32:00.881Z,98.42
2018-06-27T02:33:01.077Z,98.32
2018-06-27T02:34:01.285Z,99.18
2018-06-27T02:35:01.516Z,98.71
2018-06-27T02:36:01.709Z,99.18
2018-06-27T02:37:01.915Z,99.18
2018-06-27T02:38:02.098Z,98.80
2018-06-27T02:39:02.293Z,98.80
2018-06-27T02:40:02.465Z,98.90
2018-06-27T02:41:02.677Z,99.18
2018-06-27T02:42:02.865Z,98.61
2018-06-27T02:43:03.092Z,98.61
2018-06-27T02:44:03.265Z,98.03
2018-06-27T02:45:03.444Z,98.03
2018-06-27T02:46:03.647Z,97.85
2018-06-27T02:47:03.853Z,97.94
2018-06-27T02:48:04.048Z,98.03
2018-06-27T02:49:04.253Z,97.66
2018-06-27T02:50:04.434Z,98.03
2018-06-27T02:51:04.638Z,97.75
2018-06-27T02:52:04.840Z,97.94
2018-06-27T02:53:05.055Z,97.56
2018-06-27T02:54:05.271Z,97.85
2018-06-27T02:55:05.464Z,98.03
2018-06-27T02:56:05.656Z,98.42
2018-06-27T02:57:05.858Z,98.61
2018-06-27T02:58:06.055Z,97.85
2018-06-27T02:59:06.246Z,98.42
2018-06-27T03:00:06.433Z,98.99
2018-06-27T03:01:06.639Z,98.80
2018-06-27T03:02:06.825Z,98.80
2018-06-27T03:03:07.039Z,98.90
2018-06-27T03:04:07.317Z,98.99
2018-06-27T03:05:07.381Z,98.99
2018-06-27T03:07:39.195Z,98.94
2018-06-27T03:08:39.380Z,99.08
2018-06-27T03:09:39.588Z,98.85
2018-06-27T03:10:39.788Z,99.04
2018-06-27T03:11:39.982Z,98.85
2018-06-27T03:12:40.177Z,99.13
2018-06-27T03:13:40.364Z,99.32
2018-06-27T03:14:40.582Z,99.71
2018-06-27T03:15:40.755Z,99.42
2018-06-27T03:16:40.952Z,99.71
2018-06-27T03:17:41.146Z,99.04
2018-06-27T03:18:41.325Z,99.23
2018-06-27T03:19:41.535Z,99.52
2018-06-27T03:20:41.745Z,99.32
2018-06-27T03:21:41.956Z,99.23
2018-06-27T03:22:42.166Z,99.13
2018-06-27T03:23:42.380Z,99.66
2018-06-27T03:24:42.560Z,99.04
2018-06-27T03:25:42.754Z,99.42
2018-06-27T03:26:42.966Z,98.71
2018-06-27T03:27:43.170Z,98.85
2018-06-27T03:28:43.355Z,98.94
2018-06-27T03:29:43.555Z,99.04
2018-06-27T03:30:43.754Z,98.47
2018-06-27T03:31:43.955Z,98.61
2018-06-27T03:32:44.163Z,98.52
2018-06-27T03:33:44.360Z,98.61
2018-06-27T03:34:44.532Z,99.18
2018-06-27T03:35:44.718Z,98.99
2018-06-27T03:36:44.918Z,98.90
2018-06-27T03:37:45.106Z,99.28
2018-06-27T03:38:45.316Z,98.23
2018-06-27T03:39:45.531Z,98.99
2018-06-27T03:40:45.742Z,99.18
2018-06-27T03:41:45.926Z,98.80
2018-06-27T03:42:46.128Z,98.99
2018-06-27T03:43:46.338Z,98.42
2018-06-27T03:44:46.519Z,98.42
2018-06-27T03:45:46.714Z,98.61
2018-06-27T03:46:46.921Z,98.80
2018-06-27T03:47:47.126Z,98.80
2018-06-27T03:48:47.308Z,98.42
2018-06-27T03:49:47.516Z,98.99
2018-06-27T03:50:47.717Z,98.32
2018-06-27T03:51:47.926Z,98.32
2018-06-27T03:52:48.165Z,98.61
2018-06-27T03:53:48.372Z,98.71
2018-06-27T03:56:21.262Z,98.52
2018-06-27T03:57:20.933Z,98.61
2018-06-27T03:58:21.120Z,98.66
2018-06-27T03:59:21.348Z,98.52
2018-06-27T04:00:21.555Z,98.47
2018-06-27T04:01:21.751Z,98.47
2018-06-27T04:02:21.960Z,98.47
2018-06-27T04:03:22.155Z,98.47
2018-06-27T04:04:22.377Z,98.08
2018-06-27T04:05:22.574Z,97.71
2018-06-27T04:06:22.758Z,97.32
2018-06-27T04:07:22.966Z,97.42
2018-06-27T04:08:23.172Z,96.75
2018-06-27T04:09:23.381Z,96.51
2018-06-27T04:10:23.572Z,96.32
2018-06-27T04:11:23.770Z,96.70
2018-06-27T04:12:23.980Z,95.51
2018-06-27T04:13:24.301Z,96.66
2018-06-27T04:14:24.374Z,96.56
2018-06-27T04:15:24.535Z,96.27
2018-06-27T04:16:24.719Z,96.46
2018-06-27T04:17:24.905Z,96.27
2018-06-27T04:18:25.106Z,95.94
2018-06-27T04:19:25.307Z,95.46
2018-06-27T04:20:25.521Z,94.41
2018-06-27T04:21:25.705Z,94.51
2018-06-27T04:22:25.924Z,93.02
2018-06-27T04:23:26.124Z,91.01
2018-06-27T04:24:26.353Z,88.81
2018-06-27T04:25:26.552Z,87.37
2018-06-27T04:26:26.763Z,87.23
2018-06-27T04:27:26.955Z,86.98
2018-06-27T04:28:27.146Z,86.02
2018-06-27T04:29:27.356Z,84.53
2018-06-27T04:30:27.542Z,83.38
2018-06-27T04:31:27.738Z,82.27
2018-06-27T04:32:27.949Z,82.23
2018-06-27T04:33:28.145Z,82.23
2018-06-27T04:34:28.359Z,81.70
2018-06-27T04:35:28.545Z,81.16
2018-06-27T04:36:28.762Z,79.67
2018-06-27T04:37:28.964Z,78.70
2018-06-27T04:38:29.166Z,78.03
2018-06-27T04:39:29.377Z,78.17
2018-06-27T04:40:29.575Z,77.78
2018-06-27T04:41:29.770Z,77.69
2018-06-27T04:42:29.965Z,76.96
2018-06-27T04:43:30.177Z,77.21
2018-06-27T04:44:30.361Z,77.21
2018-06-27T04:45:30.552Z,76.64
2018-06-27T04:46:30.763Z,76.54
2018-06-27T04:47:30.979Z,77.11
2018-06-27T04:48:31.186Z,76.19
2018-06-27T04:49:31.452Z,75.81
2018-06-27T04:50:31.588Z,75.04
2018-06-27T04:51:31.781Z,74.40
2018-06-27T04:52:31.967Z,73.42
2018-06-27T04:53:32.173Z,71.97
2018-06-27T04:54:32.385Z,71.40
2018-06-27T04:55:32.599Z,70.79
2018-06-27T04:56:32.798Z,69.29
2018-06-27T04:57:32.990Z,68.52
2018-06-27T04:58:33.190Z,69.51
2018-06-27T04:59:33.388Z,67.14
2018-06-27T05:00:33.583Z,67.07
2018-06-27T05:01:33.786Z,66.49
2018-06-27T05:02:33.997Z,65.82
2018-06-27T05:03:34.192Z,65.63
2018-06-27T05:04:34.405Z,65.43
2018-06-27T05:07:06.713Z,65.01
2018-06-27T05:08:06.892Z,65.98
2018-06-27T05:09:07.096Z,65.98
2018-06-27T05:10:07.298Z,65.50
2018-06-27T05:11:07.494Z,65.50
2018-06-27T05:12:07.697Z,65.98
2018-06-27T05:13:07.885Z,66.04
2018-06-27T05:14:08.076Z,66.27
2018-06-27T05:15:08.292Z,66.36
2018-06-27T05:16:08.504Z,65.53
2018-06-27T05:17:08.707Z,65.63
2018-06-27T05:18:08.901Z,64.40
2018-06-27T05:19:09.109Z,63.76
2018-06-27T05:20:09.300Z,63.18
2018-06-27T05:21:09.512Z,63.76
2018-06-27T05:22:09.727Z,62.98
2018-06-27T05:23:09.936Z,63.95
2018-06-27T05:24:10.126Z,62.82
2018-06-27T05:25:10.325Z,62.70
2018-06-27T05:26:10.536Z,62.63
2018-06-27T05:27:10.726Z,62.34
2018-06-27T05:28:10.919Z,63.47
2018-06-27T05:29:11.113Z,63.40
2018-06-27T05:30:11.316Z,63.43
2018-06-27T05:31:11.536Z,63.85
2018-06-27T05:32:11.737Z,63.85
2018-06-27T05:33:11.938Z,63.95
2018-06-27T05:34:12.140Z,64.34
2018-06-27T05:35:12.331Z,63.40
2018-06-27T05:36:12.523Z,63.02
2018-06-27T05:37:12.715Z,62.95
2018-06-27T05:38:12.929Z,62.37
2018-06-27T05:39:13.145Z,62.30
2018-06-27T05:40:13.336Z,59.88
2018-06-27T05:41:13.569Z,58.26
2018-06-27T05:42:13.762Z,58.30
2018-06-27T05:43:13.956Z,58.04
2018-06-27T05:44:14.182Z,57.75
2018-06-27T05:45:14.375Z,59.69
2018-06-27T05:47:46.516Z,58.78
2018-06-27T05:48:46.703Z,58.36
2018-06-27T05:49:46.919Z,58.26
2018-06-27T05:50:47.124Z,60.11
2018-06-27T05:51:47.340Z,61.43
2018-06-27T05:54:19.517Z,66.17
2018-06-27T05:55:19.705Z,67.52
2018-06-27T05:56:19.920Z,66.43
2018-06-27T05:57:20.113Z,64.98
2018-06-27T05:58:20.417Z,65.05
2018-06-27T05:59:20.503Z,63.01
2018-06-27T06:00:20.746Z,62.17
2018-06-27T06:01:20.939Z,60.75
2018-06-27T06:02:21.136Z,60.43
2018-06-27T06:03:21.358Z,60.04
2018-06-27T06:04:21.599Z,58.55
2018-06-27T06:05:21.780Z,60.33
2018-06-27T06:06:22.012Z,59.23
2018-06-27T06:07:22.213Z,58.97
2018-06-27T06:08:22.415Z,58.19
2018-06-27T06:09:22.634Z,57.80
2018-06-27T06:10:22.846Z,57.01
2018-06-27T06:11:23.094Z,57.34
2018-06-27T06:12:23.289Z,57.86
2018-06-27T06:13:23.485Z,55.03
2018-06-27T06:14:23.697Z,56.14
2018-06-27T06:15:23.930Z,54.42
2018-06-27T06:16:24.128Z,57.06
2018-06-27T06:17:24.336Z,57.15
2018-06-27T06:18:24.550Z,58.03
2018-06-27T06:19:24.757Z,57.80
2018-06-27T06:20:24.971Z,57.44
2018-06-27T06:21:25.179Z,57.47
2018-06-27T06:22:25.381Z,56.96
2018-06-27T06:24:57.567Z,57.64
2018-06-27T06:25:57.752Z,57.90
2018-06-27T06:26:57.961Z,60.98
2018-06-27T06:27:58.189Z,58.97
2018-06-27T06:28:58.385Z,58.05
2018-06-27T06:29:58.582Z,58.12
2018-06-27T06:30:58.778Z,57.37
2018-06-27T06:31:58.980Z,57.64
2018-06-27T06:32:59.298Z,56.40
2018-06-27T06:33:59.386Z,58.87
2018-06-27T06:34:59.606Z,59.30
2018-06-27T06:35:59.821Z,59.82
2018-06-27T06:37:00.030Z,62.46
2018-06-27T06:38:00.237Z,60.68
2018-06-27T06:39:00.439Z,58.39
2018-06-27T06:40:00.642Z,57.21
2018-06-27T06:41:00.840Z,56.70
2018-06-27T06:42:01.056Z,58.03
2018-06-27T06:43:01.255Z,56.92
2018-06-27T06:44:01.476Z,57.08
2018-06-27T06:45:01.712Z,59.23
2018-06-27T06:46:01.976Z,57.67
2018-06-27T06:47:02.127Z,56.24
2018-06-27T06:48:02.354Z,56.65
2018-06-27T06:49:02.557Z,54.30
2018-06-27T06:50:02.771Z,53.20
2018-06-27T06:51:02.984Z,53.50
2018-06-27T06:52:03.247Z,54.60
2018-06-27T06:53:03.401Z,53.42
2018-06-27T06:54:03.652Z,54.54
2018-06-27T06:55:03.861Z,55.36
2018-06-27T06:56:04.052Z,57.32
2018-06-27T06:57:04.252Z,58.25
2018-06-27T06:58:04.452Z,56.26
2018-06-27T06:59:04.657Z,56.10
2018-06-27T07:00:04.864Z,54.54
2018-06-27T07:01:05.084Z,54.28
2018-06-27T07:02:05.295Z,55.64
2018-06-27T07:03:05.494Z,55.78
2018-06-27T07:04:05.717Z,57.72
2018-06-27T07:05:05.947Z,56.41
2018-06-27T07:06:06.145Z,54.54
2018-06-27T07:07:06.375Z,55.14
2018-06-27T07:08:06.578Z,57.50
2018-06-27T07:09:06.777Z,54.54
2018-06-27T07:10:06.996Z,55.98
2018-06-27T07:11:07.276Z,55.76
2018-06-27T07:12:07.435Z,53.16
2018-06-27T07:13:07.635Z,52.67
2018-06-27T07:14:07.851Z,51.63
2018-06-27T07:15:08.045Z,51.53
2018-06-27T07:16:08.270Z,50.31
2018-06-27T07:17:08.483Z,52.43
2018-06-27T07:18:08.699Z,52.21
2018-06-27T07:19:08.900Z,53.89
2018-06-27T07:20:09.100Z,54.35
2018-06-27T07:21:09.297Z,54.46
2018-06-27T07:22:09.591Z,57.88
2018-06-27T07:23:09.677Z,58.45
2018-06-27T07:24:09.872Z,58.00
2018-06-27T07:25:10.095Z,57.47
2018-06-27T07:27:42.447Z,55.27
2018-06-27T07:28:42.736Z,55.63
2018-06-27T07:29:42.847Z,53.59
2018-06-27T07:30:43.047Z,55.60
2018-06-27T07:31:43.264Z,53.75
2018-06-27T07:32:43.571Z,54.10
2018-06-27T07:33:43.664Z,55.46
2018-06-27T07:34:43.880Z,57.06
2018-06-27T07:35:44.081Z,54.56
2018-06-27T07:36:44.281Z,53.02
2018-06-27T07:37:44.487Z,54.07
2018-06-27T07:38:44.706Z,54.07
2018-06-27T07:39:44.929Z,54.02
2018-06-27T07:40:45.142Z,55.62
2018-06-27T07:41:45.378Z,56.18
2018-06-27T07:42:45.575Z,56.98
2018-06-27T07:45:17.728Z,53.42
2018-06-27T07:46:17.934Z,52.19
2018-06-27T07:47:18.155Z,54.32
2018-06-27T07:48:18.377Z,52.75
2018-06-27T07:49:18.584Z,54.00
2018-06-27T07:50:18.811Z,54.97
2018-06-27T07:51:19.025Z,55.02
2018-06-27T07:52:19.245Z,56.14
2018-06-27T07:53:19.463Z,52.84
2018-06-27T07:54:19.671Z,54.13
2018-06-27T07:55:19.887Z,51.92
2018-06-27T07:56:20.089Z,53.83
2018-06-27T07:57:20.299Z,55.87
2018-06-27T07:58:20.503Z,55.55
2018-06-27T07:59:20.725Z,53.06
2018-06-27T08:00:20.943Z,51.40
2018-06-27T08:01:21.153Z,49.90
2018-06-27T08:02:21.349Z,50.41
2018-06-27T08:03:21.580Z,53.67
2018-06-27T08:04:21.787Z,56.68
2018-06-27T08:05:22.007Z,55.63
2018-06-27T08:06:22.203Z,53.97
2018-06-27T08:07:22.402Z,54.20
2018-06-27T08:08:22.615Z,54.68
2018-06-27T08:09:22.875Z,54.93
2018-06-27T08:10:23.075Z,52.04
2018-06-27T08:11:23.276Z,52.43
2018-06-27T08:12:23.555Z,52.43
2018-06-27T08:13:23.677Z,54.75
2018-06-27T08:14:23.888Z,57.03
2018-06-27T08:15:24.103Z,57.48
2018-06-27T08:16:24.311Z,56.67
2018-06-27T08:17:24.552Z,57.29
2018-06-27T08:18:24.785Z,58.64
2018-06-27T08:19:25.006Z,55.21
2018-06-27T08:20:25.215Z,54.90
2018-06-27T08:21:25.416Z,52.11
2018-06-27T08:22:25.616Z,53.44
2018-06-27T08:23:25.836Z,58.19
2018-06-27T08:24:26.064Z,56.57
2018-06-27T08:25:26.269Z,54.15
2018-06-27T08:26:26.721Z,56.16
2018-06-27T08:27:26.680Z,56.87
2018-06-27T08:28:26.890Z,57.51
2018-06-27T08:29:27.113Z,54.66
2018-06-27T08:30:27.314Z,53.88
2018-06-27T08:31:27.517Z,53.71
2018-06-27T08:32:27.755Z,53.70
2018-06-27T08:33:27.955Z,55.33
2018-06-27T08:34:28.169Z,54.27
2018-06-27T08:35:28.380Z,53.75
2018-06-27T08:36:28.579Z,53.47
2018-06-27T08:37:28.795Z,53.88
2018-06-27T08:38:29.009Z,53.37
2018-06-27T08:39:29.250Z,52.23
2018-06-27T08:40:29.470Z,52.98
2018-06-27T08:41:29.694Z,52.13
2018-06-27T08:42:29.920Z,52.08
2018-06-27T08:43:30.126Z,53.27
2018-06-27T08:44:30.418Z,53.80
2018-06-27T08:45:30.537Z,54.21
2018-06-27T08:46:30.757Z,52.44
2018-06-27T08:47:30.977Z,52.29
2018-06-27T08:48:31.195Z,53.99
2018-06-27T08:49:31.418Z,51.69
2018-06-27T08:50:31.650Z,49.87
2018-06-27T08:51:31.897Z,47.94
2018-06-27T08:52:32.112Z,47.89
2018-06-27T08:55:04.257Z,45.41
2018-06-27T08:56:04.443Z,43.88
2018-06-27T08:57:04.644Z,44.71
2018-06-27T08:58:04.866Z,44.37
2018-06-27T08:59:05.084Z,44.64
2018-06-27T09:00:05.308Z,45.02
2018-06-27T09:01:05.525Z,43.34
2018-06-27T09:02:05.750Z,42.69
2018-06-27T09:03:05.951Z,44.29
2018-06-27T09:04:06.175Z,43.10
2018-06-27T09:05:06.406Z,44.34
2018-06-27T09:06:06.614Z,44.78
2018-06-27T09:07:06.817Z,45.99
2018-06-27T09:08:07.040Z,45.89
2018-06-27T09:09:07.273Z,46.77
2018-06-27T09:10:07.473Z,49.32
2018-06-27T09:11:07.696Z,46.42
2018-06-27T09:12:07.917Z,46.48
2018-06-27T09:13:08.125Z,46.50
2018-06-27T09:14:08.348Z,44.60
2018-06-27T09:15:08.547Z,45.57
2018-06-27T09:16:08.748Z,44.09
2018-06-27T09:17:08.961Z,44.26
2018-06-27T09:18:09.177Z,44.45
2018-06-27T09:19:09.405Z,44.21
2018-06-27T09:20:09.601Z,47.66
2018-06-27T09:21:09.816Z,47.52
2018-06-27T09:22:10.039Z,48.52
2018-06-27T09:23:10.268Z,48.44
2018-06-27T09:24:10.494Z,47.45
2018-06-27T09:26:42.345Z,48.30
2018-06-27T09:27:42.528Z,48.90
2018-06-27T09:28:42.719Z,49.19
2018-06-27T09:29:42.948Z,49.63
2018-06-27T09:30:43.162Z,51.35
2018-06-27T09:31:43.368Z,51.18
2018-06-27T09:32:43.595Z,50.02
2018-06-27T09:33:43.813Z,50.14
2018-06-27T09:34:44.032Z,51.79
2018-06-27T09:35:44.227Z,49.68
2018-06-27T09:36:44.454Z,48.15
2018-06-27T09:37:44.664Z,48.61
2018-06-27T09:38:44.889Z,50.57
2018-06-27T09:39:45.100Z,52.20
2018-06-27T09:40:45.299Z,53.59
2018-06-27T09:41:45.507Z,53.00
2018-06-27T09:42:45.701Z,54.19
2018-06-27T09:43:45.902Z,52.97
2018-06-27T09:44:46.107Z,53.45
2018-06-27T09:45:46.316Z,51.86
2018-06-27T09:46:46.535Z,50.02
2018-06-27T09:47:46.754Z,48.15
2018-06-27T09:48:46.960Z,49.27
2018-06-27T09:49:47.164Z,50.24
2018-06-27T09:50:47.384Z,50.07
2018-06-27T09:53:19.256Z,49.22
2018-06-27T09:54:19.448Z,47.78
2018-06-27T09:55:19.675Z,48.75
2018-06-27T09:56:19.883Z,49.17
2018-06-27T09:57:20.098Z,52.87
2018-06-27T09:58:20.326Z,53.49
2018-06-27T09:59:20.518Z,55.35
2018-06-27T10:00:20.727Z,54.11
2018-06-27T10:01:20.928Z,49.80
2018-06-27T10:02:21.142Z,51.65
2018-06-27T10:03:21.335Z,51.57
2018-06-27T10:04:21.541Z,50.26
2018-06-27T10:05:21.768Z,47.88
2018-06-27T10:06:21.973Z,48.97
2018-06-27T10:07:22.171Z,51.35
2018-06-27T10:08:22.389Z,50.07
2018-06-27T10:09:22.610Z,50.04
2018-06-27T10:10:22.826Z,50.19
2018-06-27T10:11:23.049Z,51.16
2018-06-27T10:12:23.251Z,49.37
2018-06-27T10:13:23.504Z,46.62
2018-06-27T10:14:23.684Z,48.03
2018-06-27T10:15:23.883Z,47.86
2018-06-27T10:16:24.084Z,48.13
2018-06-27T10:17:24.284Z,49.58
2018-06-27T10:18:24.503Z,47.35
2018-06-27T10:19:24.729Z,48.71
2018-06-27T10:20:24.944Z,47.76
2018-06-27T10:22:57.271Z,49.24
2018-06-27T10:23:57.327Z,49.92
2018-06-27T10:24:57.525Z,51.13
2018-06-27T10:25:57.739Z,50.45
2018-06-27T10:26:57.956Z,53.94
2018-06-27T10:27:58.160Z,52.25
2018-06-27T10:28:58.391Z,52.22
2018-06-27T10:29:58.586Z,52.34
2018-06-27T10:30:58.777Z,51.72
2018-06-27T10:31:58.982Z,54.06
2018-06-27T10:32:59.184Z,50.41
2018-06-27T10:33:59.456Z,49.90
2018-06-27T10:34:59.549Z,52.22
2018-06-27T10:35:59.732Z,51.16
2018-06-27T10:36:59.954Z,52.75
2018-06-27T10:38:00.178Z,52.78
2018-06-27T10:39:00.397Z,53.75
2018-06-27T10:40:00.611Z,52.87
2018-06-27T10:41:00.822Z,52.20
2018-06-27T10:42:01.024Z,51.32
2018-06-27T10:43:01.224Z,51.98
2018-06-27T10:44:01.451Z,52.58
2018-06-27T10:45:01.712Z,50.89
2018-06-27T10:46:01.882Z,51.72
2018-06-27T10:47:02.101Z,51.42
2018-06-27T10:48:02.317Z,51.30
2018-06-27T10:49:02.510Z,50.12
2018-06-27T10:50:02.725Z,52.80
2018-06-27T10:51:03.831Z,51.08
2018-06-27T10:52:03.148Z,53.89
2018-06-27T10:53:03.350Z,52.82
2018-06-27T10:54:03.546Z,50.02
2018-06-27T10:55:03.755Z,49.63
2018-06-27T10:56:03.962Z,51.76
2018-06-27T10:57:04.152Z,50.60
2018-06-27T10:58:04.342Z,51.66
2018-06-27T10:59:04.553Z,49.51
2018-06-27T11:00:04.788Z,49.19
2018-06-27T11:01:05.018Z,49.87
2018-06-27T11:02:05.203Z,50.31
2018-06-27T11:03:05.399Z,50.11
2018-06-27T11:04:05.692Z,51.65
2018-06-27T11:05:05.771Z,53.03
2018-06-27T11:06:05.972Z,50.33
2018-06-27T11:07:06.191Z,50.74
2018-06-27T11:08:06.412Z,50.07
2018-06-27T11:09:06.612Z,49.29
2018-06-27T11:10:06.813Z,49.77
2018-06-27T11:11:07.025Z,49.29
2018-06-27T11:12:07.221Z,49.85
2018-06-27T11:14:39.490Z,49.99
2018-06-27T11:15:39.678Z,48.83
2018-06-27T11:16:39.881Z,47.21
2018-06-27T11:17:40.096Z,49.27
2018-06-27T11:18:40.311Z,47.19
2018-06-27T11:19:40.511Z,49.44
2018-06-27T11:20:40.704Z,47.86
2018-06-27T11:21:40.952Z,49.15
2018-06-27T11:22:41.144Z,48.90
2018-06-27T11:23:41.353Z,44.62
2018-06-27T11:24:41.568Z,47.24
2018-06-27T11:25:41.777Z,45.78
2018-06-27T11:26:41.996Z,45.49
2018-06-27T11:27:42.212Z,43.65
2018-06-27T11:28:42.437Z,45.61
2018-06-27T11:31:14.674Z,45.83
2018-06-27T11:32:14.863Z,45.73
2018-06-27T11:33:15.064Z,43.09
2018-06-27T11:34:15.277Z,43.46
2018-06-27T11:35:15.479Z,44.84
2018-06-27T11:36:15.686Z,43.92
2018-06-27T11:37:15.903Z,44.57
2018-06-27T11:38:16.100Z,45.54
2018-06-27T11:39:16.295Z,45.66
2018-06-27T11:40:16.515Z,44.26
2018-06-27T11:41:16.707Z,45.22
2018-06-27T11:42:16.917Z,45.22
2018-06-27T11:43:17.189Z,44.84
2018-06-27T11:44:17.345Z,46.17
2018-06-27T11:45:17.565Z,45.95
2018-06-27T11:46:17.776Z,46.92
2018-06-27T11:47:17.975Z,47.19
2018-06-27T11:48:18.198Z,47.55
2018-06-27T11:49:18.394Z,47.38
2018-06-27T11:50:18.594Z,48.13
2018-06-27T11:51:18.803Z,49.87
2018-06-27T11:52:19.003Z,49.32
2018-06-27T11:54:51.400Z,47.94
2018-06-27T11:55:51.343Z,46.48
2018-06-27T11:56:51.564Z,47.24
2018-06-27T11:57:51.782Z,47.55
2018-06-27T11:58:51.998Z,46.02
2018-06-27T11:59:52.190Z,47.55
2018-06-27T12:00:52.385Z,46.87
2018-06-27T12:01:52.573Z,46.87
2018-06-27T12:02:52.786Z,45.81
2018-06-27T12:03:53.008Z,46.94
2018-06-27T12:04:53.199Z,47.72
2018-06-27T12:05:53.401Z,47.33
2018-06-27T12:06:53.615Z,47.04
2018-06-27T12:07:53.825Z,45.90
2018-06-27T12:08:54.042Z,45.90
2018-06-27T12:09:54.247Z,45.83
2018-06-27T12:10:54.442Z,46.24
2018-06-27T12:11:54.659Z,46.02
2018-06-27T12:12:54.873Z,47.28
2018-06-27T12:13:55.063Z,48.69
2018-06-27T12:16:27.226Z,48.03
2018-06-27T12:17:27.403Z,45.93
2018-06-27T12:18:27.595Z,47.50
2018-06-27T12:19:27.797Z,46.46
2018-06-27T12:20:27.985Z,46.94
2018-06-27T12:21:28.201Z,47.38
2018-06-27T12:22:28.450Z,45.64
2018-06-27T12:23:28.645Z,44.27
2018-06-27T12:24:28.847Z,45.65
2018-06-27T12:25:29.115Z,44.78
2018-06-27T12:26:29.328Z,44.59
2018-06-27T12:27:29.389Z,45.34
2018-06-27T12:28:29.587Z,46.51
2018-06-27T12:29:29.785Z,46.00
2018-06-27T12:30:30.005Z,47.04
2018-06-27T12:31:30.199Z,50.02
2018-06-27T12:32:30.389Z,49.34
2018-06-27T12:33:30.604Z,48.08
2018-06-27T12:34:30.826Z,48.37
2018-06-27T12:35:31.033Z,46.44
2018-06-27T12:36:31.224Z,45.86
2018-06-27T12:37:31.423Z,46.26
2018-06-27T12:38:31.677Z,46.00
2018-06-27T12:39:31.856Z,46.02
2018-06-27T12:40:32.053Z,45.47
2018-06-27T12:41:32.253Z,44.49
2018-06-27T12:42:32.458Z,44.18
2018-06-27T12:43:32.675Z,44.10
2018-06-27T12:44:32.890Z,45.37
2018-06-27T12:45:33.105Z,45.07
2018-06-27T12:46:33.308Z,45.54
2018-06-27T12:47:33.508Z,44.45
2018-06-27T12:48:33.717Z,46.29
2018-06-27T12:49:33.925Z,45.42
2018-06-27T12:50:34.126Z,45.51
2018-06-27T12:51:34.326Z,44.76
2018-06-27T12:52:34.534Z,44.96
2018-06-27T12:53:34.752Z,43.89
2018-06-27T12:54:34.944Z,43.96
2018-06-27T12:55:35.159Z,45.40
2018-06-27T12:56:35.360Z,45.76
2018-06-27T12:57:35.555Z,46.22
2018-06-27T12:58:35.811Z,48.03
2018-06-27T12:59:36.037Z,48.21
2018-06-27T13:00:36.236Z,47.91
2018-06-27T13:01:36.450Z,46.95
2018-06-27T13:02:36.656Z,46.78
2018-06-27T13:05:08.918Z,45.51
2018-06-27T13:06:09.111Z,43.46
2018-06-27T13:07:09.327Z,42.61
2018-06-27T13:08:09.489Z,43.50
2018-06-27T13:09:09.877Z,43.41
2018-06-27T13:10:09.906Z,44.06
2018-06-27T13:11:10.121Z,45.61
2018-06-27T13:12:10.332Z,45.40
2018-06-27T13:13:10.531Z,46.63
2018-06-27T13:14:10.733Z,47.11
2018-06-27T13:15:10.923Z,47.26
2018-06-27T13:16:11.141Z,46.51
2018-06-27T13:17:11.359Z,45.73
2018-06-27T13:18:11.549Z,45.27
2018-06-27T13:19:11.771Z,43.04
2018-06-27T13:20:11.981Z,43.82
2018-06-27T13:21:12.175Z,45.78
2018-06-27T13:22:12.369Z,43.33
2018-06-27T13:23:12.564Z,44.13
2018-06-27T13:24:12.753Z,42.79
2018-06-27T13:25:12.955Z,42.60
2018-06-27T13:27:45.114Z,42.57
2018-06-27T13:28:45.292Z,44.03